Meander River, Canada
Current Conditions -  °F | °C
As of 7:00 AM on Tuesday 21 Oct 2014 (Local Time) from CYOJ Reporting Station
Light Fog Light Fog  
Wind Chill: 34°   Ceiling: Unl
Heat Index: 34°   Visibility: 15mi
Dew Point: 34°   Wind: 2mph
Humidity: 100%   Direction: 20°NNE
Pressure: 29.45"   Gusts: NA
Location:  59.03°N, 117.68°W
Report Text: CYOJ 211300Z 02002KT 15SM BCFG SKC 01/01 A2945 RMK SLP987
Loading
Personal Weather Stations






























Interactive Weather Map
Tropical Storm Tracking
New forecast layout! Learn more

10-Day Weather Forecast

Advertisements
Track Severe Weather on mobile